createdAt,value
2018-08-31T00:02:23.141Z,16.68
2018-08-31T00:05:04.649Z,16.66
2018-08-31T00:09:48.430Z,16.63
2018-08-31T00:12:28.014Z,16.60
2018-08-31T00:14:56.378Z,16.57
2018-08-31T00:17:24.765Z,16.56
2018-08-31T00:19:53.149Z,16.56
2018-08-31T00:22:21.534Z,16.54
2018-08-31T00:25:00.206Z,16.54
2018-08-31T00:27:39.876Z,16.53
2018-08-31T00:30:19.525Z,16.52
2018-08-31T00:33:11.597Z,16.52
2018-08-31T00:37:26.270Z,16.50
2018-08-31T00:42:12.129Z,16.46
2018-08-31T00:45:15.338Z,16.40
2018-08-31T00:47:43.730Z,16.39
2018-08-31T00:50:12.090Z,16.37
2018-08-31T00:52:40.477Z,16.37
2018-08-31T00:55:08.838Z,16.37
2018-08-31T00:57:37.230Z,16.37
2018-08-31T01:00:05.883Z,16.37
2018-08-31T01:02:34.254Z,16.37
2018-08-31T01:05:02.641Z,16.37
2018-08-31T01:07:31.009Z,16.37
2018-08-31T01:09:59.398Z,16.37
2018-08-31T01:12:27.774Z,16.37
2018-08-31T01:14:56.167Z,16.37
2018-08-31T01:17:24.543Z,16.37
2018-08-31T01:19:52.963Z,16.35
2018-08-31T01:22:21.330Z,16.35
2018-08-31T01:24:49.857Z,16.37
2018-08-31T01:27:18.250Z,16.36
2018-08-31T01:29:46.647Z,16.35
2018-08-31T01:32:15.045Z,16.36
2018-08-31T01:34:43.842Z,16.35
2018-08-31T01:37:12.494Z,16.35
2018-08-31T01:39:41.042Z,16.34
2018-08-31T01:42:09.451Z,16.35
2018-08-31T01:44:37.858Z,16.35
2018-08-31T01:47:06.411Z,16.33
2018-08-31T01:49:34.934Z,16.32
2018-08-31T01:52:03.294Z,16.31
2018-08-31T01:54:31.688Z,16.31
2018-08-31T01:57:00.059Z,16.30
2018-08-31T01:59:28.459Z,16.30
2018-08-31T02:01:56.866Z,16.29
2018-08-31T02:04:25.279Z,16.27
2018-08-31T02:06:53.649Z,16.26
2018-08-31T02:09:22.694Z,16.25
2018-08-31T02:11:51.928Z,16.26
2018-08-31T02:14:20.322Z,16.25
2018-08-31T02:16:49.463Z,16.25
2018-08-31T02:19:17.843Z,16.26
2018-08-31T02:21:46.233Z,16.26
2018-08-31T02:24:14.609Z,16.25
2018-08-31T02:26:43.002Z,16.25
2018-08-31T02:29:11.377Z,16.24
2018-08-31T02:31:39.766Z,16.24
2018-08-31T02:34:08.150Z,16.24
2018-08-31T02:36:36.543Z,16.25
2018-08-31T02:39:06.255Z,16.23
2018-08-31T02:41:34.684Z,16.22
2018-08-31T02:44:03.054Z,16.20
2018-08-31T02:46:31.447Z,16.22
2018-08-31T02:48:59.806Z,16.22
2018-08-31T02:51:28.189Z,16.23
2018-08-31T02:53:56.554Z,16.23
2018-08-31T02:56:24.935Z,16.23
2018-08-31T02:58:53.297Z,16.24
2018-08-31T03:01:21.684Z,16.22
2018-08-31T03:03:50.063Z,16.23
2018-08-31T03:06:18.461Z,16.22
2018-08-31T03:08:46.834Z,16.23
2018-08-31T03:11:15.210Z,16.22
2018-08-31T03:13:43.606Z,16.22
2018-08-31T03:16:11.987Z,16.20
2018-08-31T03:18:40.403Z,16.20
2018-08-31T03:21:08.803Z,16.21
2018-08-31T03:23:37.193Z,16.17
2018-08-31T03:26:05.558Z,16.16
2018-08-31T03:28:33.957Z,16.15
2018-08-31T03:31:02.339Z,16.15
2018-08-31T03:33:30.742Z,16.14
2018-08-31T03:35:59.122Z,16.14
2018-08-31T03:38:27.522Z,16.14
2018-08-31T03:40:55.895Z,16.12
2018-08-31T03:43:25.307Z,16.11
2018-08-31T03:45:53.688Z,16.10
2018-08-31T03:48:22.103Z,16.08
2018-08-31T03:50:50.493Z,16.07
2018-08-31T03:53:18.917Z,16.06
2018-08-31T03:55:47.290Z,16.04
2018-08-31T03:58:15.714Z,16.03
2018-08-31T04:00:44.159Z,16.02
2018-08-31T04:03:12.807Z,16.00
2018-08-31T04:05:41.194Z,16.01
2018-08-31T04:08:09.589Z,16.01
2018-08-31T04:10:37.971Z,16.00
2018-08-31T04:13:06.369Z,15.99
2018-08-31T04:15:34.741Z,15.98
2018-08-31T04:18:03.177Z,15.97
2018-08-31T04:20:31.551Z,15.93
2018-08-31T04:22:59.945Z,15.93
2018-08-31T04:25:28.322Z,15.91
2018-08-31T04:27:56.710Z,15.89
2018-08-31T04:30:25.154Z,15.89
2018-08-31T04:32:53.555Z,15.87
2018-08-31T04:35:21.982Z,15.88
2018-08-31T04:37:50.374Z,15.88
2018-08-31T04:40:18.751Z,15.88
2018-08-31T04:42:47.162Z,15.89
2018-08-31T04:45:16.707Z,15.88
2018-08-31T04:47:45.159Z,15.88
2018-08-31T04:50:13.540Z,15.86
2018-08-31T04:52:41.915Z,15.86
2018-08-31T04:55:10.305Z,15.87
2018-08-31T04:57:38.690Z,15.85
2018-08-31T05:00:07.095Z,15.86
2018-08-31T05:02:35.470Z,15.84
2018-08-31T05:05:03.998Z,15.84
2018-08-31T05:07:32.361Z,15.83
2018-08-31T05:10:00.755Z,15.84
2018-08-31T05:12:29.143Z,15.84
2018-08-31T05:14:57.536Z,15.85
2018-08-31T05:17:25.938Z,15.86
2018-08-31T05:19:54.345Z,15.87
2018-08-31T05:22:22.827Z,15.88
2018-08-31T05:24:51.234Z,15.92
2018-08-31T05:27:19.823Z,15.94
2018-08-31T05:29:48.223Z,15.96
2018-08-31T05:32:16.598Z,15.97
2018-08-31T05:34:45.324Z,15.99
2018-08-31T05:37:13.386Z,16.01
2018-08-31T05:39:41.781Z,16.03
2018-08-31T05:42:10.194Z,16.04
2018-08-31T05:44:38.588Z,16.05
2018-08-31T05:47:06.986Z,16.06
2018-08-31T05:49:35.379Z,16.07
2018-08-31T05:52:03.779Z,16.09
2018-08-31T05:54:32.181Z,16.11
2018-08-31T05:57:00.555Z,16.12
2018-08-31T05:59:28.948Z,16.11
2018-08-31T06:01:57.353Z,16.12
2018-08-31T06:04:25.742Z,16.13
2018-08-31T06:06:54.114Z,16.15
2018-08-31T06:09:22.524Z,16.15
2018-08-31T06:11:50.949Z,16.18
2018-08-31T06:14:19.319Z,16.17
2018-08-31T06:16:47.686Z,16.19
2018-08-31T06:19:16.110Z,16.19
2018-08-31T06:21:44.491Z,16.19
2018-08-31T06:24:12.886Z,16.19
2018-08-31T06:26:41.254Z,16.20
2018-08-31T06:29:09.649Z,16.23
2018-08-31T06:31:38.063Z,16.27
2018-08-31T06:34:06.802Z,16.28
2018-08-31T06:36:35.231Z,16.29
2018-08-31T06:39:05.083Z,16.29
2018-08-31T06:41:33.454Z,16.28
2018-08-31T06:44:01.885Z,16.28
2018-08-31T06:46:30.263Z,16.27
2018-08-31T06:48:58.679Z,16.26
2018-08-31T06:51:27.096Z,16.26
2018-08-31T06:53:55.449Z,16.25
2018-08-31T06:56:23.843Z,16.26
2018-08-31T06:58:52.214Z,16.27
2018-08-31T07:01:20.617Z,16.27
2018-08-31T07:03:49.070Z,16.28
2018-08-31T07:06:17.407Z,16.30
2018-08-31T07:08:45.774Z,16.33
2018-08-31T07:11:14.183Z,16.36
2018-08-31T07:13:42.565Z,16.41
2018-08-31T07:16:10.954Z,16.47
2018-08-31T07:18:40.033Z,16.54
2018-08-31T07:21:08.447Z,16.62
2018-08-31T07:23:36.998Z,16.71
2018-08-31T07:26:05.395Z,16.80
2018-08-31T07:28:33.794Z,16.88
2018-08-31T07:31:02.182Z,16.93
2018-08-31T07:33:30.561Z,16.99
2018-08-31T07:35:58.969Z,17.04
2018-08-31T07:38:27.340Z,17.08
2018-08-31T07:40:55.727Z,17.12
2018-08-31T07:43:24.135Z,17.18
2018-08-31T07:45:52.529Z,17.27
2018-08-31T07:48:20.905Z,17.33
2018-08-31T07:50:49.298Z,17.38
2018-08-31T07:53:17.669Z,17.45
2018-08-31T07:55:46.059Z,17.51
2018-08-31T07:58:14.429Z,17.58
2018-08-31T08:00:42.824Z,17.65
2018-08-31T08:03:11.195Z,17.77
2018-08-31T08:05:39.627Z,17.85
2018-08-31T08:08:07.990Z,17.97
2018-08-31T08:10:36.380Z,18.10
2018-08-31T08:13:04.750Z,18.27
2018-08-31T08:15:33.148Z,18.46
2018-08-31T08:18:01.524Z,18.61
2018-08-31T08:20:29.946Z,18.75
2018-08-31T08:22:58.319Z,18.87
2018-08-31T08:25:26.719Z,19.00
2018-08-31T08:27:55.084Z,19.13
2018-08-31T08:30:23.472Z,19.26
2018-08-31T08:32:51.847Z,19.37
2018-08-31T08:35:20.248Z,19.50
2018-08-31T08:37:48.618Z,19.64
2018-08-31T08:40:17.022Z,19.76
2018-08-31T08:42:45.445Z,19.93
2018-08-31T08:45:13.830Z,20.05
2018-08-31T08:47:42.216Z,20.17
2018-08-31T08:50:10.738Z,20.25
2018-08-31T08:52:39.111Z,20.38
2018-08-31T08:55:07.517Z,20.45
2018-08-31T08:57:35.908Z,20.50
2018-08-31T09:00:04.408Z,20.47
2018-08-31T09:02:32.889Z,20.45
2018-08-31T09:05:01.259Z,20.45
2018-08-31T09:07:29.654Z,20.44
2018-08-31T09:09:58.021Z,20.44
2018-08-31T09:12:26.418Z,20.42
2018-08-31T09:14:54.802Z,20.39
2018-08-31T09:17:23.194Z,20.32
2018-08-31T09:19:51.600Z,20.27
2018-08-31T09:22:19.993Z,20.22
2018-08-31T09:24:48.375Z,20.19
2018-08-31T09:27:16.770Z,20.18
2018-08-31T09:29:45.150Z,20.20
2018-08-31T09:32:18.978Z,20.23
2018-08-31T09:34:51.675Z,20.23
2018-08-31T09:37:20.269Z,20.27
2018-08-31T09:39:49.540Z,20.36
2018-08-31T09:42:18.054Z,20.45
2018-08-31T09:44:46.445Z,20.56
2018-08-31T09:47:15.226Z,20.59
2018-08-31T09:49:45.420Z,20.68
2018-08-31T09:52:14.983Z,20.75
2018-08-31T09:54:43.365Z,20.81
2018-08-31T09:57:12.123Z,20.83
2018-08-31T09:59:41.091Z,20.80
2018-08-31T10:03:14.857Z,20.76
2018-08-31T10:05:43.225Z,20.76
2018-08-31T10:08:11.622Z,20.79
2018-08-31T10:10:40.059Z,20.80
2018-08-31T10:13:08.458Z,20.84
2018-08-31T10:15:36.835Z,20.83
2018-08-31T10:18:05.367Z,20.81
2018-08-31T10:20:33.750Z,20.83
2018-08-31T10:23:02.147Z,20.88
2018-08-31T10:25:30.513Z,20.94
2018-08-31T10:27:58.934Z,21.03
2018-08-31T10:30:27.307Z,21.14
2018-08-31T10:32:55.703Z,21.27
2018-08-31T10:35:24.069Z,21.42
2018-08-31T10:37:52.551Z,21.53
2018-08-31T10:40:20.937Z,21.66
2018-08-31T10:42:49.473Z,21.76
2018-08-31T10:45:17.843Z,21.88
2018-08-31T10:47:46.290Z,21.97
2018-08-31T10:50:14.666Z,21.99
2018-08-31T10:52:43.067Z,21.93
2018-08-31T10:55:11.437Z,21.92
2018-08-31T10:57:39.839Z,21.95
2018-08-31T11:00:08.557Z,22.03
2018-08-31T11:02:36.974Z,22.11
2018-08-31T11:05:05.351Z,22.16
2018-08-31T11:07:33.761Z,22.16
2018-08-31T11:10:02.129Z,22.13
2018-08-31T11:12:30.578Z,22.06
2018-08-31T11:14:59.001Z,21.98
2018-08-31T11:17:27.400Z,21.91
2018-08-31T11:19:55.833Z,21.81
2018-08-31T11:22:24.243Z,21.71
2018-08-31T11:24:52.756Z,21.63
2018-08-31T11:27:21.159Z,21.57
2018-08-31T11:29:49.566Z,21.55
2018-08-31T11:32:17.999Z,21.56
2018-08-31T11:34:46.383Z,21.60
2018-08-31T11:37:14.796Z,21.66
2018-08-31T11:39:43.220Z,21.75
2018-08-31T11:42:11.700Z,21.84
2018-08-31T11:44:40.075Z,21.92
2018-08-31T11:47:08.455Z,22.01
2018-08-31T11:49:36.866Z,22.13
2018-08-31T11:52:05.249Z,22.24
2018-08-31T11:54:33.663Z,22.31
2018-08-31T11:57:02.040Z,22.30
2018-08-31T11:59:30.435Z,22.30
2018-08-31T12:01:59.021Z,22.36
2018-08-31T12:04:27.383Z,22.47
2018-08-31T12:06:55.763Z,22.58
2018-08-31T12:09:24.160Z,22.68
2018-08-31T12:11:52.551Z,22.75
2018-08-31T12:14:20.941Z,22.83
2018-08-31T12:16:49.310Z,22.89
2018-08-31T12:19:17.726Z,22.96
2018-08-31T12:21:46.101Z,23.02
2018-08-31T12:24:14.497Z,23.11
2018-08-31T12:26:42.866Z,23.19
2018-08-31T12:29:11.276Z,23.25
2018-08-31T12:31:39.667Z,23.28
2018-08-31T12:34:08.055Z,23.24
2018-08-31T12:36:36.432Z,23.22
2018-08-31T12:39:07.600Z,23.19
2018-08-31T12:41:35.994Z,23.20
2018-08-31T12:44:04.600Z,23.26
2018-08-31T12:46:32.990Z,23.29
2018-08-31T12:49:01.389Z,23.35
2018-08-31T12:51:29.763Z,23.38
2018-08-31T12:53:58.159Z,23.39
2018-08-31T12:56:26.526Z,23.42
2018-08-31T12:58:54.943Z,23.40
2018-08-31T13:01:23.311Z,23.40
2018-08-31T13:03:51.702Z,23.42
2018-08-31T13:06:20.075Z,23.43
2018-08-31T13:08:48.470Z,23.47
2018-08-31T13:11:16.843Z,23.47
2018-08-31T13:13:45.239Z,23.44
2018-08-31T13:16:13.611Z,23.48
2018-08-31T13:18:42.032Z,23.49
2018-08-31T13:21:10.406Z,23.57
2018-08-31T13:23:38.810Z,23.60
2018-08-31T13:26:07.191Z,23.61
2018-08-31T13:28:35.586Z,23.65
2018-08-31T13:31:03.993Z,23.64
2018-08-31T13:33:32.383Z,23.66
2018-08-31T13:36:00.745Z,23.69
2018-08-31T13:38:29.162Z,23.73
2018-08-31T13:40:57.537Z,23.73
2018-08-31T13:43:25.916Z,23.74
2018-08-31T13:45:54.306Z,23.74
2018-08-31T13:48:22.679Z,23.76
2018-08-31T13:50:51.070Z,23.79
2018-08-31T13:53:19.478Z,23.81
2018-08-31T13:55:47.909Z,23.79
2018-08-31T13:58:16.292Z,23.77
2018-08-31T14:00:44.707Z,23.78
2018-08-31T14:03:13.081Z,23.79
2018-08-31T14:05:41.479Z,23.79
2018-08-31T14:08:09.865Z,23.78
2018-08-31T14:10:38.255Z,23.75
2018-08-31T14:13:06.623Z,23.66
2018-08-31T14:15:35.011Z,23.61
2018-08-31T14:18:03.397Z,23.57
2018-08-31T14:20:31.818Z,23.55
2018-08-31T14:23:00.195Z,23.52
2018-08-31T14:25:28.592Z,23.52
2018-08-31T14:27:56.976Z,23.51
2018-08-31T14:30:25.373Z,23.50
2018-08-31T14:32:53.791Z,23.44
2018-08-31T14:35:22.187Z,23.42
2018-08-31T14:37:50.553Z,23.34
2018-08-31T14:40:18.949Z,23.27
2018-08-31T14:42:47.327Z,23.23
2018-08-31T14:45:15.744Z,23.19
2018-08-31T14:47:44.154Z,23.14
2018-08-31T14:50:12.558Z,23.08
2018-08-31T14:52:40.935Z,23.06
2018-08-31T14:55:09.347Z,23.01
2018-08-31T14:57:37.816Z,22.95
2018-08-31T15:00:06.525Z,22.90
2018-08-31T15:02:34.898Z,22.88
2018-08-31T15:05:03.309Z,22.88
2018-08-31T15:07:31.740Z,22.88
2018-08-31T15:10:00.133Z,22.88
2018-08-31T15:12:28.507Z,22.85
2018-08-31T15:14:56.889Z,22.80
2018-08-31T15:17:25.257Z,22.77
2018-08-31T15:19:53.714Z,22.65
2018-08-31T15:22:22.077Z,22.59
2018-08-31T15:24:50.485Z,22.54
2018-08-31T15:27:18.868Z,22.54
2018-08-31T15:29:47.275Z,22.56
2018-08-31T15:32:15.659Z,22.56
2018-08-31T15:34:44.079Z,22.52
2018-08-31T15:37:12.767Z,22.46
2018-08-31T15:39:41.149Z,22.38
2018-08-31T15:42:09.610Z,22.29
2018-08-31T15:44:38.846Z,22.23
2018-08-31T15:47:07.282Z,22.20
2018-08-31T15:49:36.045Z,22.20
2018-08-31T15:52:04.382Z,22.21
2018-08-31T15:54:32.801Z,22.25
2018-08-31T15:57:01.194Z,22.28
2018-08-31T15:59:29.603Z,22.27
2018-08-31T16:01:57.995Z,22.26
2018-08-31T16:04:26.375Z,22.25
2018-08-31T16:06:54.771Z,22.24
2018-08-31T16:09:23.245Z,22.19
2018-08-31T16:11:51.580Z,22.17
2018-08-31T16:14:19.956Z,22.12
2018-08-31T16:16:48.423Z,22.08
2018-08-31T16:19:16.830Z,22.04
2018-08-31T16:21:45.221Z,21.96
2018-08-31T16:24:13.585Z,21.90
2018-08-31T16:26:41.970Z,21.84
2018-08-31T16:29:10.359Z,21.78
2018-08-31T16:31:38.774Z,21.72
2018-08-31T16:34:07.474Z,21.67
2018-08-31T16:36:35.858Z,21.63
2018-08-31T16:39:05.205Z,21.60
2018-08-31T16:41:33.600Z,21.56
2018-08-31T16:44:01.970Z,21.56
2018-08-31T16:46:30.385Z,21.60
2018-08-31T16:48:58.767Z,21.67
2018-08-31T16:51:27.150Z,21.80
2018-08-31T16:53:55.509Z,21.93
2018-08-31T16:56:23.899Z,22.08
2018-08-31T16:58:52.266Z,22.19
2018-08-31T17:01:20.659Z,22.24
2018-08-31T17:03:49.021Z,22.29
2018-08-31T17:06:17.485Z,22.33
2018-08-31T17:08:45.862Z,22.34
2018-08-31T17:11:14.251Z,22.26
2018-08-31T17:13:42.620Z,22.12
2018-08-31T17:16:11.006Z,21.93
2018-08-31T17:18:39.406Z,21.73
2018-08-31T17:21:07.796Z,21.49
2018-08-31T17:23:36.167Z,21.23
2018-08-31T17:26:04.563Z,21.00
2018-08-31T17:28:38.413Z,20.76
2018-08-31T17:31:12.129Z,20.54
2018-08-31T17:33:45.810Z,20.36
2018-08-31T17:36:19.546Z,20.19
2018-08-31T17:38:47.928Z,20.02
2018-08-31T17:41:16.335Z,19.88
2018-08-31T17:43:44.722Z,19.75
2018-08-31T17:46:13.147Z,19.63
2018-08-31T17:48:41.550Z,19.54
2018-08-31T17:51:09.938Z,19.45
2018-08-31T17:53:38.366Z,19.36
2018-08-31T17:56:06.758Z,19.28
2018-08-31T17:58:35.166Z,19.18
2018-08-31T18:01:03.565Z,19.10
2018-08-31T18:03:31.969Z,19.01
2018-08-31T18:06:00.391Z,18.92
2018-08-31T18:08:28.799Z,18.86
2018-08-31T18:10:57.209Z,18.76
2018-08-31T18:13:25.641Z,18.68
2018-08-31T18:15:54.188Z,18.60
2018-08-31T18:18:22.653Z,18.51
2018-08-31T18:20:51.042Z,18.43
2018-08-31T18:23:19.457Z,18.35
2018-08-31T18:25:47.853Z,18.27
2018-08-31T18:28:16.290Z,18.20
2018-08-31T18:30:44.689Z,18.12
2018-08-31T18:33:13.163Z,18.04
2018-08-31T18:35:41.564Z,17.97
2018-08-31T18:38:10.059Z,17.90
2018-08-31T18:40:38.447Z,17.83
2018-08-31T18:43:06.867Z,17.76
2018-08-31T18:45:35.267Z,17.69
2018-08-31T18:48:03.689Z,17.62
2018-08-31T18:50:32.074Z,17.56
2018-08-31T18:53:00.473Z,17.48
2018-08-31T18:55:28.863Z,17.43
2018-08-31T18:57:57.293Z,17.38
2018-08-31T19:00:25.675Z,17.30
2018-08-31T19:02:54.157Z,17.25
2018-08-31T19:05:22.538Z,17.19
2018-08-31T19:07:50.937Z,17.13
2018-08-31T19:10:19.315Z,17.06
2018-08-31T19:12:47.748Z,17.00
2018-08-31T19:15:16.141Z,16.95
2018-08-31T19:17:44.549Z,16.89
2018-08-31T19:20:13.122Z,16.84
2018-08-31T19:22:41.530Z,16.78
2018-08-31T19:25:10.818Z,16.74
2018-08-31T19:27:39.194Z,16.69
2018-08-31T19:30:07.980Z,16.63
2018-08-31T19:32:36.382Z,16.58
2018-08-31T19:35:04.759Z,16.53
2018-08-31T19:37:33.183Z,16.49
2018-08-31T19:40:01.593Z,16.45
2018-08-31T19:42:30.034Z,16.40
2018-08-31T19:44:58.433Z,16.36
2018-08-31T19:47:26.854Z,16.33
2018-08-31T19:49:55.291Z,16.30
2018-08-31T19:52:23.679Z,16.27
2018-08-31T19:54:52.082Z,16.26
2018-08-31T19:57:20.487Z,16.24
2018-08-31T19:59:48.904Z,16.20
2018-08-31T20:02:17.324Z,16.17
2018-08-31T20:04:45.721Z,16.15
2018-08-31T20:07:14.527Z,16.14
2018-08-31T20:09:42.959Z,16.13
2018-08-31T20:12:11.334Z,16.12
2018-08-31T20:14:39.749Z,16.11
2018-08-31T20:17:08.140Z,16.08
2018-08-31T20:19:36.702Z,16.07
2018-08-31T20:22:07.823Z,16.05
2018-08-31T20:24:36.235Z,16.03
2018-08-31T20:27:04.675Z,16.01
2018-08-31T20:29:33.086Z,15.99
2018-08-31T20:32:01.469Z,15.97
2018-08-31T20:34:29.963Z,15.93
2018-08-31T20:36:58.341Z,15.92
2018-08-31T20:39:26.748Z,15.89
2018-08-31T20:41:55.166Z,15.89
2018-08-31T20:44:23.566Z,15.87
2018-08-31T20:46:52.043Z,15.87
2018-08-31T20:49:20.496Z,15.86
2018-08-31T20:51:48.909Z,15.85
2018-08-31T20:54:17.389Z,15.84
2018-08-31T20:56:45.709Z,15.82
2018-08-31T20:59:14.359Z,15.78
2018-08-31T21:01:42.734Z,15.77
2018-08-31T21:04:11.132Z,15.74
2018-08-31T21:06:39.506Z,15.72
2018-08-31T21:09:10.842Z,15.69
2018-08-31T21:11:39.214Z,15.65
2018-08-31T21:14:07.726Z,15.62
2018-08-31T21:16:36.143Z,15.57
2018-08-31T21:19:04.558Z,15.51
2018-08-31T21:21:32.957Z,15.43
2018-08-31T21:24:01.355Z,15.37
2018-08-31T21:26:29.768Z,15.30
2018-08-31T21:28:58.174Z,15.26
2018-08-31T21:31:26.555Z,15.20
2018-08-31T21:33:54.959Z,15.15
2018-08-31T21:36:23.386Z,15.11
2018-08-31T21:38:51.807Z,15.07
2018-08-31T21:41:20.176Z,15.03
2018-08-31T21:43:48.696Z,15.00
2018-08-31T21:46:17.110Z,14.96
2018-08-31T21:48:45.477Z,14.93
2018-08-31T21:51:13.881Z,14.89
2018-08-31T21:53:42.251Z,14.84
2018-08-31T21:56:10.651Z,14.82
2018-08-31T21:58:39.024Z,14.77
2018-08-31T22:01:12.535Z,14.74
2018-08-31T22:03:40.898Z,14.71
2018-08-31T22:06:09.295Z,14.66
2018-08-31T22:08:37.670Z,14.62
2018-08-31T22:11:06.061Z,14.59
2018-08-31T22:13:34.422Z,14.57
2018-08-31T22:16:02.818Z,14.54
2018-08-31T22:18:31.205Z,14.51
2018-08-31T22:20:59.658Z,14.50
2018-08-31T22:23:28.027Z,14.50
2018-08-31T22:25:56.415Z,14.48
2018-08-31T22:28:24.778Z,14.48
2018-08-31T22:30:54.203Z,14.48
2018-08-31T22:33:22.577Z,14.52
2018-08-31T22:35:50.971Z,14.52
2018-08-31T22:38:19.348Z,14.54
2018-08-31T22:40:47.749Z,14.56
2018-08-31T22:43:16.119Z,14.58
2018-08-31T22:45:44.506Z,14.60
2018-08-31T22:48:12.878Z,14.62
2018-08-31T22:50:41.285Z,14.62
2018-08-31T22:53:09.650Z,14.62
2018-08-31T22:55:38.051Z,14.63
2018-08-31T22:58:06.418Z,14.63
2018-08-31T23:00:34.823Z,14.62
2018-08-31T23:03:03.204Z,14.61
2018-08-31T23:05:31.610Z,14.58
2018-08-31T23:08:02.542Z,14.59
2018-08-31T23:10:31.566Z,14.57
2018-08-31T23:12:59.942Z,14.55
2018-08-31T23:15:28.537Z,14.53
2018-08-31T23:17:56.902Z,14.51
2018-08-31T23:20:25.332Z,14.48
2018-08-31T23:22:57.871Z,14.47
2018-08-31T23:25:31.731Z,14.44
2018-08-31T23:28:00.107Z,14.42
2018-08-31T23:30:28.498Z,14.40
2018-08-31T23:32:56.870Z,14.39
2018-08-31T23:35:25.258Z,14.39
2018-08-31T23:37:53.635Z,14.37
2018-08-31T23:40:22.027Z,14.35
2018-08-31T23:42:50.387Z,14.33
2018-08-31T23:45:18.776Z,14.33
2018-08-31T23:47:47.154Z,14.31
2018-08-31T23:50:15.542Z,14.29
2018-08-31T23:52:43.915Z,14.28
2018-08-31T23:55:12.446Z,14.26
2018-08-31T23:57:40.819Z,14.23
